createdAt,value
2019-06-07T00:00:38.429Z,34.47
2019-06-07T00:02:50.823Z,34.68
2019-06-07T00:05:20.009Z,35.14
2019-06-07T00:07:48.000Z,35.34
2019-06-07T00:10:34.960Z,34.36
2019-06-07T00:12:45.810Z,34.61
2019-06-07T00:15:18.114Z,34.47
2019-06-07T00:17:43.878Z,35.34
2019-06-07T00:20:16.658Z,34.55
2019-06-07T00:22:41.774Z,35.22
2019-06-07T00:25:12.779Z,34.67
2019-06-07T00:27:39.729Z,34.62
2019-06-07T00:30:32.612Z,35.20
2019-06-07T00:32:37.618Z,34.61
2019-06-07T00:35:05.700Z,34.73
2019-06-07T00:37:33.689Z,35.31
2019-06-07T00:40:14.073Z,35.04
2019-06-07T00:42:31.503Z,34.94
2019-06-07T00:44:59.370Z,35.16
2019-06-07T00:47:27.748Z,34.74
2019-06-07T00:49:56.051Z,34.88
2019-06-07T00:53:11.296Z,34.54
2019-06-07T00:54:53.940Z,34.69
2019-06-07T00:57:24.230Z,34.79
2019-06-07T00:59:51.636Z,35.13
2019-06-07T01:02:24.721Z,35.26
2019-06-07T01:04:49.391Z,35.01
2019-06-07T01:07:18.767Z,34.46
2019-06-07T01:09:47.275Z,34.97
2019-06-07T01:12:19.399Z,35.20
2019-06-07T01:14:44.876Z,34.67
2019-06-07T01:17:27.622Z,34.57
2019-06-07T01:19:44.782Z,35.11
2019-06-07T01:22:16.018Z,34.75
2019-06-07T01:24:42.545Z,34.96
2019-06-07T01:27:10.499Z,34.59
2019-06-07T01:29:38.517Z,35.32
2019-06-07T01:32:06.618Z,34.74
2019-06-07T01:34:34.826Z,35.42
2019-06-07T01:37:03.071Z,34.64
2019-06-07T01:39:31.852Z,35.19
2019-06-07T01:42:00.056Z,34.73
2019-06-07T01:44:30.674Z,35.09
2019-06-07T01:46:57.686Z,35.03
2019-06-07T01:49:27.767Z,34.67
2019-06-07T01:51:55.292Z,35.45
2019-06-07T01:54:53.138Z,34.98
2019-06-07T01:56:53.527Z,34.60
2019-06-07T01:59:23.283Z,35.12
2019-06-07T02:01:51.433Z,35.23
2019-06-07T02:04:22.910Z,35.30
2019-06-07T02:06:49.032Z,34.84
2019-06-07T02:09:16.896Z,34.69
2019-06-07T02:11:44.883Z,35.37
2019-06-07T02:14:12.731Z,34.37
2019-06-07T02:16:40.570Z,34.93
2019-06-07T02:19:08.559Z,35.24
2019-06-07T02:21:36.515Z,34.30
2019-06-07T02:24:04.648Z,34.49
2019-06-07T02:26:32.780Z,34.86
2019-06-07T02:29:00.794Z,34.92
2019-06-07T02:31:36.986Z,35.15
2019-06-07T02:33:58.351Z,34.49
2019-06-07T02:36:30.490Z,35.38
2019-06-07T02:38:56.259Z,34.84
2019-06-07T02:41:28.165Z,34.97
2019-06-07T02:43:54.107Z,35.15
2019-06-07T02:46:35.368Z,34.67
2019-06-07T02:48:56.079Z,35.17
2019-06-07T02:51:27.284Z,35.07
2019-06-07T02:53:53.744Z,35.31
2019-06-07T02:56:53.972Z,35.39
2019-06-07T02:58:51.889Z,34.80
2019-06-07T03:01:19.849Z,35.01
2019-06-07T03:03:48.079Z,35.08
2019-06-07T03:06:16.190Z,35.06
2019-06-07T03:08:45.586Z,35.44
2019-06-07T03:11:14.608Z,35.45
2019-06-07T03:13:42.618Z,35.22
2019-06-07T03:16:12.652Z,35.25
2019-06-07T03:19:05.655Z,35.28
2019-06-07T03:21:36.416Z,35.13
2019-06-07T03:24:04.589Z,35.57
2019-06-07T03:26:45.117Z,35.30
2019-06-07T03:29:02.315Z,35.39
2019-06-07T03:31:35.345Z,35.16
2019-06-07T03:33:59.999Z,35.28
2019-06-07T03:36:27.941Z,35.16
2019-06-07T03:38:55.922Z,35.89
2019-06-07T03:41:24.356Z,35.85
2019-06-07T03:43:52.326Z,35.92
2019-06-07T03:46:20.411Z,35.62
2019-06-07T03:48:48.444Z,35.74
2019-06-07T03:51:24.800Z,35.16
2019-06-07T03:53:46.314Z,35.23
2019-06-07T03:56:14.797Z,34.93
2019-06-07T03:58:49.511Z,35.69
2019-06-07T04:01:13.366Z,35.98
2019-06-07T04:03:50.658Z,35.19
2019-06-07T04:06:11.368Z,35.97
2019-06-07T04:08:42.118Z,35.99
2019-06-07T04:11:08.963Z,35.89
2019-06-07T04:13:39.877Z,36.18
2019-06-07T04:16:07.797Z,35.50
2019-06-07T04:18:36.508Z,36.15
2019-06-07T04:21:05.466Z,36.29
2019-06-07T04:23:35.857Z,36.13
2019-06-07T04:26:03.292Z,35.54
2019-06-07T04:29:26.062Z,35.68
2019-06-07T04:31:01.009Z,36.22
2019-06-07T04:33:28.933Z,35.92
2019-06-07T04:35:57.261Z,35.82
2019-06-07T04:38:25.365Z,35.20
2019-06-07T04:40:53.287Z,36.13
2019-06-07T04:43:21.416Z,36.15
2019-06-07T04:45:51.359Z,36.16
2019-06-07T04:48:19.901Z,36.33
2019-06-07T04:50:47.874Z,36.20
2019-06-07T04:53:16.053Z,36.33
2019-06-07T04:55:44.110Z,36.15
2019-06-07T04:58:12.041Z,35.92
2019-06-07T05:00:53.245Z,36.00
2019-06-07T05:03:09.659Z,35.87
2019-06-07T05:05:43.099Z,36.11
2019-06-07T05:08:11.252Z,36.04
2019-06-07T05:10:38.794Z,35.79
2019-06-07T05:13:06.627Z,35.97
2019-06-07T05:15:35.254Z,35.88
2019-06-07T05:18:04.208Z,35.63
2019-06-07T05:20:33.717Z,36.02
2019-06-07T05:23:01.843Z,35.91
2019-06-07T05:25:31.752Z,36.22
2019-06-07T05:27:59.495Z,35.91
2019-06-07T05:31:02.032Z,35.98
2019-06-07T05:33:06.870Z,35.94
2019-06-07T05:35:35.690Z,35.83
2019-06-07T05:38:04.861Z,36.23
2019-06-07T05:40:34.892Z,36.18
2019-06-07T05:43:03.390Z,36.25
2019-06-07T05:45:32.514Z,36.16
2019-06-07T05:48:02.685Z,35.87
2019-06-07T05:50:43.915Z,36.33
2019-06-07T05:53:00.360Z,36.19
2019-06-07T05:55:28.378Z,36.24
2019-06-07T05:57:56.165Z,36.13
2019-06-07T06:00:25.187Z,36.12
2019-06-07T06:03:04.851Z,35.96
2019-06-07T06:05:34.297Z,36.32
2019-06-07T06:07:54.068Z,36.34
2019-06-07T06:10:21.888Z,36.13
2019-06-07T06:12:51.857Z,35.95
2019-06-07T06:15:19.694Z,36.04
2019-06-07T06:17:50.037Z,35.94
2019-06-07T06:20:17.338Z,35.81
2019-06-07T06:22:48.673Z,35.71
2019-06-07T06:25:33.632Z,35.56
2019-06-07T06:30:14.965Z,35.80
2019-06-07T06:32:50.969Z,35.62
2019-06-07T06:35:12.466Z,35.72
2019-06-07T06:37:42.522Z,35.64
2019-06-07T06:40:11.211Z,36.05
2019-06-07T06:42:39.765Z,35.82
2019-06-07T06:45:07.963Z,35.68
2019-06-07T06:47:35.844Z,35.44
2019-06-07T06:50:03.937Z,35.23
2019-06-07T06:52:31.881Z,35.66
2019-06-07T06:55:01.039Z,35.08
2019-06-07T06:57:29.024Z,35.79
2019-06-07T06:59:56.918Z,34.74
2019-06-07T07:02:24.843Z,35.11
2019-06-07T07:04:54.103Z,35.11
2019-06-07T07:07:22.264Z,35.49
2019-06-07T07:09:57.322Z,35.46
2019-06-07T07:12:19.554Z,35.55
2019-06-07T07:14:49.736Z,35.29
2019-06-07T07:17:17.142Z,35.55
2019-06-07T07:19:48.466Z,35.48
2019-06-07T07:22:15.036Z,35.06
2019-06-07T07:24:44.502Z,35.23
2019-06-07T07:27:12.630Z,34.97
2019-06-07T07:29:40.521Z,35.05
2019-06-07T07:32:08.400Z,34.76
2019-06-07T07:34:37.506Z,34.77
2019-06-07T07:37:05.690Z,34.94
2019-06-07T07:39:33.609Z,35.45
2019-06-07T07:42:20.300Z,35.04
2019-06-07T07:44:31.168Z,35.43
2019-06-07T07:46:59.059Z,35.18
2019-06-07T07:49:27.048Z,35.99
2019-06-07T07:51:58.423Z,35.84
2019-06-07T07:54:24.824Z,35.99
2019-06-07T07:56:56.106Z,35.46
2019-06-07T07:59:40.789Z,35.28
2019-06-07T08:01:55.531Z,35.38
2019-06-07T08:04:39.479Z,35.42
2019-06-07T08:06:53.396Z,35.54
2019-06-07T08:09:21.249Z,36.01
2019-06-07T08:11:50.065Z,35.53
2019-06-07T08:14:18.774Z,36.38
2019-06-07T08:16:47.064Z,35.86
2019-06-07T08:19:15.135Z,34.90
2019-06-07T08:21:43.160Z,35.07
2019-06-07T08:24:11.179Z,35.05
2019-06-07T08:26:39.372Z,34.97
2019-06-07T08:29:07.418Z,34.17
2019-06-07T08:31:35.356Z,34.48
2019-06-07T08:34:03.361Z,34.63
2019-06-07T08:36:41.914Z,34.84
2019-06-07T08:39:07.251Z,35.00
2019-06-07T08:41:30.397Z,35.18
2019-06-07T08:44:02.586Z,35.21
2019-06-07T08:46:28.143Z,35.33
2019-06-07T08:49:00.866Z,35.35
2019-06-07T08:51:25.836Z,35.46
2019-06-07T08:54:15.991Z,35.46
2019-06-07T08:56:23.184Z,35.72
2019-06-07T08:58:54.935Z,35.45
2019-06-07T09:01:20.941Z,35.57
2019-06-07T09:03:49.037Z,35.73
2019-06-07T09:07:00.739Z,35.68
2019-06-07T09:08:46.821Z,35.56
2019-06-07T09:11:14.986Z,34.93
2019-06-07T09:13:42.884Z,35.44
2019-06-07T09:16:10.924Z,35.38
2019-06-07T09:18:43.936Z,35.19
2019-06-07T09:21:09.747Z,35.42
2019-06-07T09:23:38.141Z,35.31
2019-06-07T09:26:16.014Z,35.35
2019-06-07T09:28:36.119Z,35.44
2019-06-07T09:31:09.777Z,35.58
2019-06-07T09:33:33.754Z,35.71
2019-06-07T09:36:07.211Z,35.79
2019-06-07T09:38:31.162Z,35.84
2019-06-07T09:41:00.471Z,35.82
2019-06-07T09:44:00.626Z,35.76
2019-06-07T09:46:01.004Z,35.91
2019-06-07T09:49:10.044Z,35.90
2019-06-07T09:51:03.422Z,35.82
2019-06-07T09:53:27.511Z,35.92
2019-06-07T09:55:56.756Z,36.07
2019-06-07T09:58:54.458Z,36.08
2019-06-07T10:00:54.808Z,36.14
2019-06-07T10:03:23.022Z,36.24
2019-06-07T10:05:51.062Z,36.17
2019-06-07T10:09:31.619Z,36.27
2019-06-07T10:10:48.409Z,36.29
2019-06-07T10:13:16.293Z,36.35
2019-06-07T10:15:44.303Z,36.35
2019-06-07T10:18:12.238Z,36.32
2019-06-07T10:20:40.031Z,36.44
2019-06-07T10:23:08.201Z,36.50
2019-06-07T10:25:36.353Z,36.48
2019-06-07T10:28:04.122Z,36.46
2019-06-07T10:30:32.130Z,36.44
2019-06-07T10:33:00.402Z,36.52
2019-06-07T10:35:28.358Z,36.60
2019-06-07T10:37:58.189Z,36.62
2019-06-07T10:40:25.865Z,36.51
2019-06-07T10:42:54.042Z,36.57
2019-06-07T10:45:22.059Z,36.55
2019-06-07T10:47:49.880Z,36.67
2019-06-07T10:50:17.701Z,36.68
2019-06-07T10:52:45.456Z,36.68
2019-06-07T10:55:13.482Z,36.67
2019-06-07T10:57:41.264Z,36.73
2019-06-07T11:00:09.443Z,36.71
2019-06-07T11:02:37.351Z,36.73
2019-06-07T11:05:05.842Z,36.88
2019-06-07T11:07:33.899Z,36.79
2019-06-07T11:10:08.741Z,36.75
2019-06-07T11:12:31.430Z,37.13
2019-06-07T11:14:59.441Z,36.94
2019-06-07T11:17:27.656Z,36.89
2019-06-07T11:19:55.657Z,36.85
2019-06-07T11:22:23.920Z,36.78
2019-06-07T11:24:51.810Z,36.60
2019-06-07T11:27:19.642Z,36.77
2019-06-07T11:29:47.766Z,36.85
2019-06-07T11:32:15.767Z,36.47
2019-06-07T11:34:43.656Z,36.69
2019-06-07T11:37:13.241Z,36.52
2019-06-07T11:39:41.167Z,36.89
2019-06-07T11:42:09.912Z,36.82
2019-06-07T11:44:37.838Z,36.56
2019-06-07T11:47:06.395Z,36.74
2019-06-07T11:49:34.663Z,36.90
2019-06-07T11:52:02.536Z,36.95
2019-06-07T11:54:30.441Z,36.97
2019-06-07T11:56:58.448Z,37.01
2019-06-07T11:59:26.455Z,37.23
2019-06-07T12:01:54.230Z,37.02
2019-06-07T12:04:34.385Z,36.92
2019-06-07T12:06:51.510Z,36.94
2019-06-07T12:09:19.814Z,36.95
2019-06-07T12:11:47.754Z,37.00
2019-06-07T12:14:16.750Z,36.98
2019-06-07T12:16:45.411Z,37.00
2019-06-07T12:19:13.610Z,36.98
2019-06-07T12:21:41.603Z,36.91
2019-06-07T12:24:10.340Z,36.92
2019-06-07T12:26:38.371Z,36.98
2019-06-07T12:29:06.312Z,37.00
2019-06-07T12:31:34.358Z,36.90
2019-06-07T12:34:02.173Z,36.88
2019-06-07T12:36:30.250Z,36.82
2019-06-07T12:38:58.172Z,36.89
2019-06-07T12:41:26.580Z,36.86
2019-06-07T12:43:54.621Z,36.87
2019-06-07T12:46:27.950Z,36.82
2019-06-07T12:48:52.298Z,36.87
2019-06-07T12:51:21.259Z,36.83
2019-06-07T12:53:52.363Z,36.67
2019-06-07T12:56:21.827Z,36.82
2019-06-07T12:58:50.015Z,36.89
2019-06-07T13:01:18.266Z,36.82
2019-06-07T13:03:46.399Z,36.84
2019-06-07T13:06:15.412Z,36.84
2019-06-07T13:08:43.653Z,36.83
2019-06-07T13:11:17.568Z,36.82
2019-06-07T13:13:41.372Z,36.84
2019-06-07T13:16:09.548Z,36.87
2019-06-07T13:18:37.685Z,36.83
2019-06-07T13:21:05.828Z,36.88
2019-06-07T13:23:33.796Z,36.86
2019-06-07T13:26:02.030Z,36.88
2019-06-07T13:28:30.144Z,36.88
2019-06-07T13:30:58.527Z,36.88
2019-06-07T13:33:32.835Z,36.88
2019-06-07T13:35:56.326Z,36.83
2019-06-07T13:38:28.909Z,36.79
2019-06-07T13:40:57.229Z,36.76
2019-06-07T13:43:25.707Z,36.82
2019-06-07T13:45:53.930Z,36.80
2019-06-07T13:48:23.259Z,36.84
2019-06-07T13:50:51.475Z,36.83
2019-06-07T13:53:38.442Z,36.81
2019-06-07T13:56:06.503Z,36.78
2019-06-07T13:58:34.655Z,36.54
2019-06-07T14:01:02.662Z,36.76
2019-06-07T14:03:49.771Z,36.79
2019-06-07T14:09:06.000Z,36.79
2019-06-07T14:11:49.494Z,36.80
2019-06-07T14:14:03.930Z,36.80
2019-06-07T14:16:31.878Z,36.68
2019-06-07T14:18:59.710Z,36.53
2019-06-07T14:21:46.651Z,36.75
2019-06-07T14:24:15.088Z,36.78
2019-06-07T14:29:32.021Z,36.79
2019-06-07T14:32:00.374Z,36.69
2019-06-07T14:34:28.723Z,36.47
2019-06-07T14:36:56.770Z,36.56
2019-06-07T14:39:25.005Z,36.61
2019-06-07T14:42:08.013Z,36.65
2019-06-07T14:44:23.584Z,36.68
2019-06-07T14:46:52.769Z,36.68
2019-06-07T14:49:20.766Z,36.69
2019-06-07T14:54:22.823Z,36.67
2019-06-07T14:56:50.889Z,36.66
2019-06-07T14:59:18.692Z,36.64
2019-06-07T15:01:46.664Z,36.59
2019-06-07T15:04:34.794Z,36.62
2019-06-07T15:07:03.136Z,36.66
2019-06-07T15:09:31.149Z,36.63
2019-06-07T15:11:59.020Z,36.64
2019-06-07T15:14:45.900Z,36.63
2019-06-07T15:19:47.740Z,36.64
2019-06-07T15:22:15.672Z,36.62
2019-06-07T15:24:43.725Z,36.61
2019-06-07T15:27:11.591Z,36.61
2019-06-07T15:29:39.790Z,36.60
2019-06-07T15:32:07.681Z,36.47
2019-06-07T15:34:36.353Z,36.57
2019-06-07T15:37:05.454Z,36.41
2019-06-07T15:39:52.551Z,36.59
2019-06-07T15:42:20.532Z,36.46
2019-06-07T15:44:48.490Z,36.55
2019-06-07T15:47:16.462Z,36.55
2019-06-07T15:50:03.329Z,36.59
2019-06-07T15:52:31.503Z,36.53
2019-06-07T15:54:59.469Z,36.54
2019-06-07T15:57:27.321Z,36.58
2019-06-07T15:59:55.396Z,36.48
2019-06-07T16:02:23.347Z,36.29
2019-06-07T16:04:51.279Z,36.51
2019-06-07T16:07:19.901Z,36.39
2019-06-07T16:10:06.863Z,36.51
2019-06-07T16:12:34.995Z,36.43
2019-06-07T16:15:02.906Z,36.43
2019-06-07T16:17:30.783Z,36.44
2019-06-07T16:19:58.755Z,36.23
2019-06-07T16:22:26.722Z,36.15
2019-06-07T16:24:54.711Z,36.35
2019-06-07T16:27:22.830Z,36.38
2019-06-07T16:32:24.881Z,36.43
2019-06-07T16:34:52.848Z,36.39
2019-06-07T16:37:20.754Z,36.46
2019-06-07T16:39:48.712Z,36.48
2019-06-07T16:42:16.689Z,36.42
2019-06-07T16:44:44.772Z,36.42
2019-06-07T16:47:14.300Z,36.32
2019-06-07T16:49:43.001Z,36.43
2019-06-07T16:52:11.587Z,36.51
2019-06-07T16:54:39.730Z,36.44
2019-06-07T16:57:07.637Z,36.42
2019-06-07T16:59:36.719Z,36.43
2019-06-07T17:02:05.011Z,36.50
2019-06-07T17:04:32.884Z,36.49
2019-06-07T17:07:00.921Z,36.48
2019-06-07T17:09:28.936Z,36.45
2019-06-07T17:11:56.893Z,36.44
2019-06-07T17:14:24.885Z,36.45
2019-06-07T17:16:53.019Z,36.37
2019-06-07T17:19:20.825Z,36.37
2019-06-07T17:21:49.564Z,36.44
2019-06-07T17:24:18.442Z,36.37
2019-06-07T17:26:47.630Z,36.44
2019-06-07T17:29:15.930Z,36.44
2019-06-07T17:32:02.717Z,36.42
2019-06-07T17:34:30.642Z,36.42
2019-06-07T17:37:17.616Z,36.34
2019-06-07T17:39:46.790Z,36.44
2019-06-07T17:42:15.033Z,36.31
2019-06-07T17:44:42.979Z,36.34
2019-06-07T17:47:10.912Z,36.38
2019-06-07T17:49:38.768Z,36.35
2019-06-07T17:52:06.659Z,36.40
2019-06-07T17:54:34.450Z,36.31
2019-06-07T17:57:02.429Z,36.27
2019-06-07T17:59:30.409Z,36.30
2019-06-07T18:02:15.531Z,36.36
2019-06-07T18:04:28.022Z,36.36
2019-06-07T18:06:56.540Z,36.36
2019-06-07T18:09:24.943Z,36.39
2019-06-07T18:11:54.028Z,36.39
2019-06-07T18:14:21.926Z,36.39
2019-06-07T18:16:50.573Z,36.44
2019-06-07T18:19:18.594Z,36.41
2019-06-07T18:21:47.128Z,36.49
2019-06-07T18:24:15.220Z,36.45
2019-06-07T18:26:43.126Z,36.48
2019-06-07T18:29:10.916Z,36.44
2019-06-07T18:31:38.820Z,36.46
2019-06-07T18:34:07.234Z,36.52
2019-06-07T18:36:35.220Z,36.48
2019-06-07T18:41:38.457Z,36.57
2019-06-07T18:44:20.774Z,36.56
2019-06-07T18:46:36.262Z,36.44
2019-06-07T18:49:04.170Z,36.45
2019-06-07T18:51:32.104Z,36.42
2019-06-07T18:53:59.890Z,36.47
2019-06-07T18:56:27.903Z,36.36
2019-06-07T18:58:55.695Z,36.40
2019-06-07T19:01:23.958Z,36.21
2019-06-07T19:03:52.087Z,36.29
2019-06-07T19:06:21.573Z,36.27
2019-06-07T19:08:53.118Z,36.15
2019-06-07T19:11:19.447Z,36.24
2019-06-07T19:13:47.383Z,36.17
2019-06-07T19:16:15.253Z,36.39
2019-06-07T19:18:43.248Z,36.38
2019-06-07T19:21:11.010Z,36.55
2019-06-07T19:23:38.895Z,36.39
2019-06-07T19:26:06.896Z,36.32
2019-06-07T19:28:34.877Z,36.40
2019-06-07T19:31:02.759Z,36.41
2019-06-07T19:33:30.626Z,36.47
2019-06-07T19:35:59.522Z,36.43
2019-06-07T19:38:28.202Z,36.50
2019-06-07T19:40:56.065Z,36.44
2019-06-07T19:43:23.952Z,36.53
2019-06-07T19:45:52.117Z,36.56
2019-06-07T19:48:19.926Z,36.63
2019-06-07T19:50:47.806Z,36.78
2019-06-07T19:53:16.146Z,36.86
2019-06-07T19:55:44.525Z,36.75
2019-06-07T19:58:12.523Z,36.73
2019-06-07T20:00:40.526Z,36.83
2019-06-07T20:03:27.500Z,36.81
2019-06-07T20:05:56.047Z,37.18
2019-06-07T20:08:25.324Z,37.10
2019-06-07T20:10:54.353Z,36.98
2019-06-07T20:13:22.791Z,36.71
2019-06-07T20:15:50.829Z,36.66
2019-06-07T20:18:18.825Z,36.64
2019-06-07T20:20:46.914Z,36.52
2019-06-07T20:23:14.809Z,36.74
2019-06-07T20:25:42.964Z,36.92
2019-06-07T20:28:11.041Z,37.05
2019-06-07T20:30:57.841Z,37.24
2019-06-07T20:33:25.816Z,37.16
2019-06-07T20:35:53.729Z,37.27
2019-06-07T20:38:21.744Z,37.41
2019-06-07T20:40:49.510Z,37.45
2019-06-07T20:43:17.481Z,37.83
2019-06-07T20:45:45.543Z,37.66
2019-06-07T20:48:13.398Z,37.94
2019-06-07T20:50:41.409Z,38.07
2019-06-07T20:53:09.345Z,37.96
2019-06-07T20:55:37.307Z,37.53
2019-06-07T20:58:05.566Z,37.61
2019-06-07T21:00:33.502Z,36.85
2019-06-07T21:03:01.311Z,36.60
2019-06-07T21:05:29.451Z,35.74
2019-06-07T21:07:57.331Z,36.47
2019-06-07T21:10:25.192Z,35.53
2019-06-07T21:12:53.154Z,35.19
2019-06-07T21:15:21.025Z,34.37
2019-06-07T21:17:48.927Z,35.92
2019-06-07T21:20:16.726Z,35.25
2019-06-07T21:22:44.726Z,35.71
2019-06-07T21:25:13.087Z,36.31
2019-06-07T21:27:40.969Z,36.43
2019-06-07T21:30:09.646Z,34.70
2019-06-07T21:32:38.767Z,34.28
2019-06-07T21:35:07.867Z,34.64
2019-06-07T21:37:36.418Z,34.41
2019-06-07T21:40:05.951Z,35.36
2019-06-07T21:42:34.093Z,34.36
2019-06-07T21:45:03.766Z,34.52
2019-06-07T21:47:32.080Z,34.27
2019-06-07T21:50:00.001Z,34.45
2019-06-07T21:52:28.003Z,34.77
2019-06-07T21:54:55.893Z,34.77
2019-06-07T21:57:24.134Z,35.14
2019-06-07T21:59:52.061Z,35.71
2019-06-07T22:02:19.952Z,34.48
2019-06-07T22:04:47.886Z,35.11
2019-06-07T22:07:16.206Z,34.54
2019-06-07T22:09:44.138Z,35.20
2019-06-07T22:12:12.172Z,34.34
2019-06-07T22:14:40.426Z,36.89
2019-06-07T22:17:08.321Z,36.75
2019-06-07T22:19:36.281Z,36.05
2019-06-07T22:22:05.222Z,34.99
2019-06-07T22:24:33.938Z,34.51
2019-06-07T22:29:49.037Z,34.54
2019-06-07T22:32:17.157Z,34.43
2019-06-07T22:34:45.046Z,34.16
2019-06-07T22:37:15.885Z,33.92
2019-06-07T22:39:42.611Z,34.43
2019-06-07T22:42:12.055Z,34.70
2019-06-07T22:44:40.284Z,33.96
2019-06-07T22:49:55.468Z,34.24
2019-06-07T22:52:23.433Z,33.63
2019-06-07T22:54:51.785Z,34.05
2019-06-07T22:59:57.505Z,34.05
2019-06-07T23:02:25.554Z,33.07
2019-06-07T23:04:53.477Z,33.88
2019-06-07T23:07:21.524Z,34.58
2019-06-07T23:09:49.636Z,33.63
2019-06-07T23:12:19.450Z,34.60
2019-06-07T23:14:47.921Z,34.83
2019-06-07T23:19:49.778Z,34.09
2019-06-07T23:22:36.946Z,34.66
2019-06-07T23:25:04.930Z,33.99
2019-06-07T23:27:32.843Z,34.13
2019-06-07T23:30:08.075Z,34.56
2019-06-07T23:32:31.040Z,34.71
2019-06-07T23:34:59.150Z,35.09
2019-06-07T23:37:27.216Z,35.24
2019-06-07T23:39:55.099Z,34.38
2019-06-07T23:42:23.098Z,33.79
2019-06-07T23:44:51.049Z,34.89
2019-06-07T23:47:20.461Z,35.66
2019-06-07T23:49:49.087Z,34.07
2019-06-07T23:52:17.921Z,34.01
2019-06-07T23:54:47.294Z,33.67
2019-06-07T23:57:15.988Z,33.79
2019-06-07T23:59:45.260Z,33.91
